Time;durP1;ratioP1;P1;durP2;ratioP2;P2;SDS_P1;SDS_P2;PMS_P1;PMS_P2;Temp;Humidity;BMP_temperature;BMP_pressure;BME280_temperature;BME280_humidity;BME280_pressure;Samples;Min_cycle;Max_cycle;Signal;HPM_P1;HPM_P2
2022/08/01 00:01:33;;;;;;;2.60;1.90;;;22.00;86.50;;;;;;5035927;28;20226;-60
2022/08/01 00:04:00;;;;;;;2.30;1.77;;;21.90;87.10;;;;;;5036611;28;20226;-60
2022/08/01 00:06:27;;;;;;;2.13;1.65;;;21.90;88.40;;;;;;5036582;28;20210;-60
2022/08/01 00:08:55;;;;;;;2.17;1.50;;;21.90;88.40;;;;;;5036166;28;20571;-60
2022/08/01 00:11:22;;;;;;;2.13;1.23;;;21.90;88.70;;;;;;5035978;28;20230;-60
2022/08/01 00:13:49;;;;;;;5.35;1.50;;;21.80;88.90;;;;;;5036189;28;20209;-60
2022/08/01 00:16:16;;;;;;;1.88;1.40;;;21.80;89.90;;;;;;5036311;28;20214;-60
2022/08/01 00:18:43;;;;;;;2.63;1.85;;;21.80;90.30;;;;;;5035991;28;20218;-60
2022/08/01 00:21:10;;;;;;;1.52;1.40;;;21.70;90.50;;;;;;5036102;28;20233;-60
2022/08/01 00:23:36;;;;;;;2.17;1.42;;;21.70;90.80;;;;;;5036129;28;20225;-61
2022/08/01 00:26:04;;;;;;;4.70;1.55;;;21.60;90.80;;;;;;5036262;28;20199;-60
2022/08/01 00:28:31;;;;;;;2.15;1.85;;;21.60;91.00;;;;;;5036119;28;20210;-60
2022/08/01 00:30:58;;;;;;;2.67;1.58;;;21.60;91.10;;;;;;5036052;28;20655;-60
2022/08/01 00:33:24;;;;;;;3.75;1.85;;;21.60;91.10;;;;;;5036060;28;20222;-60
2022/08/01 00:35:51;;;;;;;2.67;1.58;;;21.60;91.30;;;;;;5036165;28;20213;-60
2022/08/01 00:38:18;;;;;;;4.82;1.77;;;21.60;91.60;;;;;;5036125;28;20206;-60
2022/08/01 00:40:45;;;;;;;2.38;1.58;;;21.60;91.70;;;;;;5036328;28;20234;-59
2022/08/01 00:43:13;;;;;;;3.42;1.60;;;21.60;91.80;;;;;;5036274;28;20226;-59
2022/08/01 00:45:39;;;;;;;2.97;2.00;;;21.50;91.90;;;;;;5036852;28;20206;-60
2022/08/01 00:48:06;;;;;;;4.25;1.80;;;21.50;92.00;;;;;;5036613;28;20206;-59
2022/08/01 00:50:33;;;;;;;3.25;1.83;;;21.50;92.00;;;;;;5036761;28;20686;-60
2022/08/01 00:53:01;;;;;;;3.28;1.80;;;21.50;92.30;;;;;;5036630;28;20206;-60
2022/08/01 00:55:29;;;;;;;2.08;1.63;;;21.40;92.50;;;;;;5036878;28;20213;-60
2022/08/01 00:57:56;;;;;;;2.65;1.85;;;21.40;92.60;;;;;;5037083;28;20229;-60
2022/08/01 01:00:24;;;;;;;2.10;1.75;;;21.40;93.10;;;;;;5036467;28;20210;-60
2022/08/01 01:02:51;;;;;;;2.33;2.03;;;21.40;93.10;;;;;;5035225;28;20573;-59
2022/08/01 01:05:18;;;;;;;3.92;2.00;;;21.40;93.20;;;;;;5035915;28;20206;-60
2022/08/01 01:07:51;;;;;;;3.42;1.83;;;21.40;93.20;;;;;;5036221;28;20264;-59
2022/08/01 01:10:21;;;;;;;2.58;1.90;;;21.40;93.70;;;;;;5036561;28;20210;-60
2022/08/01 01:12:54;;;;;;;3.58;2.10;;;21.30;93.90;;;;;;5036313;28;20214;-60
2022/08/01 01:15:27;;;;;;;1.92;1.70;;;21.30;94.30;;;;;;5036244;28;20213;-59
2022/08/01 01:17:59;;;;;;;2.05;1.85;;;21.30;94.40;;;;;;5035590;28;20206;-59
2022/08/01 01:20:31;;;;;;;2.55;1.80;;;21.30;94.40;;;;;;5035558;28;20209;-60
2022/08/01 01:23:11;;;;;;;2.13;1.92;;;21.30;94.50;;;;;;5033901;28;20712;-59
2022/08/01 01:25:55;;;;;;;2.08;1.88;;;21.30;94.60;;;;;;5034339;28;20202;-59
2022/08/01 01:28:33;;;;;;;3.08;1.90;;;21.30;94.90;;;;;;5035339;28;20217;-60
2022/08/01 01:31:03;;;;;;;3.15;1.80;;;21.30;95.10;;;;;;5035144;28;20233;-59
2022/08/01 01:33:34;;;;;;;2.72;1.90;;;21.20;95.50;;;;;;5034790;28;20206;-59
2022/08/01 01:36:05;;;;;;;4.40;2.10;;;21.10;95.80;;;;;;5034615;28;20210;-60
2022/08/01 01:38:37;;;;;;;2.78;1.63;;;21.10;96.20;;;;;;5034582;28;20217;-60
2022/08/01 01:41:06;;;;;;;5.40;1.90;;;21.00;96.50;;;;;;5035911;28;20234;-59
2022/08/01 01:43:34;;;;;;;2.22;1.92;;;20.90;96.70;;;;;;5035874;28;20230;-60
2022/08/01 01:46:04;;;;;;;2.67;1.85;;;20.90;97.00;;;;;;5035448;28;20214;-59
2022/08/01 01:48:32;;;;;;;2.70;1.90;;;20.80;97.40;;;;;;5034117;28;20210;-60
2022/08/01 01:51:00;;;;;;;3.88;2.00;;;20.80;97.70;;;;;;5033931;28;20628;-60
2022/08/01 01:53:29;;;;;;;3.08;2.03;;;20.70;97.80;;;;;;5034355;28;20206;-60
2022/08/01 01:55:58;;;;;;;2.17;1.70;;;20.70;98.10;;;;;;5033994;28;20673;-60
2022/08/01 01:58:27;;;;;;;2.42;1.95;;;20.70;98.40;;;;;;5033913;28;20280;-59
2022/08/01 02:00:55;;;;;;;2.15;1.80;;;20.70;98.40;;;;;;5034282;28;20706;-59
2022/08/01 02:03:24;;;;;;;4.75;2.20;;;20.70;98.40;;;;;;5034209;28;20229;-59
2022/08/01 02:05:54;;;;;;;2.72;2.00;;;20.70;98.40;;;;;;5034354;28;20264;-60
2022/08/01 02:08:23;;;;;;;2.53;2.10;;;20.70;98.40;;;;;;5033165;28;20248;-61
2022/08/01 02:13:35;;;;;;;2.92;2.17;;;20.70;98.60;;;;;;5033804;28;20270;-61
2022/08/01 02:16:02;;;;;;;2.38;2.17;;;20.70;99.00;;;;;;5034207;28;20213;-62
2022/08/01 02:18:30;;;;;;;2.13;1.88;;;20.70;99.50;;;;;;5034031;28;20210;-61
2022/08/01 02:20:59;;;;;;;2.25;2.05;;;20.70;99.70;;;;;;5033345;28;20223;-61
2022/08/01 02:23:32;;;;;;;2.35;2.00;;;20.70;99.80;;;;;;5033525;28;20260;-61
2022/08/01 02:26:01;;;;;;;2.97;2.15;;;20.60;99.90;;;;;;5033834;28;20217;-61
2022/08/01 02:28:31;;;;;;;2.25;1.70;;;20.60;99.90;;;;;;5033258;28;20206;-61
2022/08/01 02:31:03;;;;;;;2.17;1.98;;;20.60;99.90;;;;;;5033936;28;20241;-60
2022/08/01 02:33:37;;;;;;;3.65;2.15;;;20.60;99.90;;;;;;5033210;28;20218;-61
2022/08/01 02:36:06;;;;;;;4.28;2.00;;;20.60;99.90;;;;;;5037803;28;20205;-61
2022/08/01 02:38:36;;;;;;;5.43;2.10;;;20.60;99.90;;;;;;5037914;28;20210;-61
2022/08/01 02:41:08;;;;;;;7.22;2.83;;;20.60;99.90;;;;;;5037525;28;20248;-60
2022/08/01 02:43:37;;;;;;;3.47;1.90;;;20.60;99.90;;;;;;5037414;28;20272;-61
2022/08/01 02:46:05;;;;;;;2.20;2.00;;;20.60;99.90;;;;;;5037674;28;20222;-61
2022/08/01 02:48:37;;;;;;;3.20;1.98;;;20.60;99.90;;;;;;5037453;28;20209;-62
2022/08/01 02:51:06;;;;;;;2.40;1.98;;;20.50;99.90;;;;;;5037328;28;20222;-61
2022/08/01 02:53:38;;;;;;;3.33;1.90;;;20.50;99.90;;;;;;5037528;28;20210;-61
2022/08/01 02:56:05;;;;;;;2.15;1.90;;;20.50;99.90;;;;;;5037012;28;20210;-61
2022/08/01 02:58:34;;;;;;;4.88;3.75;;;20.50;99.90;;;;;;5036742;28;20561;-62
2022/08/01 03:01:02;;;;;;;2.70;2.10;;;20.50;99.90;;;;;;5037357;28;20222;-61
2022/08/01 03:03:30;;;;;;;3.10;2.50;;;20.50;99.90;;;;;;5036574;28;20229;-62
2022/08/01 03:05:59;;;;;;;3.97;2.35;;;20.50;99.90;;;;;;5037046;28;20209;-61
2022/08/01 03:08:26;;;;;;;2.40;2.10;;;20.50;99.90;;;;;;5037397;28;20206;-60
2022/08/01 03:10:54;;;;;;;3.70;2.10;;;20.50;99.90;;;;;;5036790;28;20230;-61
2022/08/01 03:13:22;;;;;;;3.03;2.47;;;20.50;99.90;;;;;;5036567;28;20206;-61
2022/08/01 03:15:51;;;;;;;8.85;7.20;;;20.50;99.90;;;;;;5036594;28;20662;-61
2022/08/01 03:18:19;;;;;;;3.58;2.70;;;20.50;99.90;;;;;;5036344;28;20206;-62
2022/08/01 03:20:47;;;;;;;8.73;6.90;;;20.50;99.90;;;;;;5036453;28;20229;-61
2022/08/01 03:23:17;;;;;;;3.92;3.40;;;20.40;99.90;;;;;;5036240;28;20226;-61
2022/08/01 03:25:45;;;;;;;4.68;3.80;;;20.40;99.90;;;;;;5037320;28;20210;-61
2022/08/01 03:28:14;;;;;;;2.60;2.40;;;20.50;99.90;;;;;;5036493;28;20202;-61
2022/08/01 03:30:42;;;;;;;3.92;2.92;;;20.40;99.90;;;;;;5036923;28;20230;-62
2022/08/01 03:33:10;;;;;;;3.05;2.75;;;20.40;99.90;;;;;;5037505;28;20206;-61
2022/08/01 03:35:40;;;;;;;4.68;2.97;;;20.40;99.90;;;;;;5038220;28;20211;-60
2022/08/01 03:38:10;;;;;;;5.50;3.03;;;20.40;99.90;;;;;;5038085;28;20670;-61
2022/08/01 03:40:41;;;;;;;2.50;2.25;;;20.40;99.90;;;;;;5037817;28;20241;-61
2022/08/01 03:43:14;;;;;;;4.63;2.40;;;20.40;99.90;;;;;;5037708;28;20230;-62
2022/08/01 03:45:44;;;;;;;4.38;2.30;;;20.40;99.90;;;;;;5036566;28;20577;-62
2022/08/01 03:48:16;;;;;;;4.68;2.17;;;20.30;99.90;;;;;;5036722;28;20203;-62
2022/08/01 03:50:46;;;;;;;2.97;2.20;;;20.20;99.90;;;;;;5036912;28;20226;-62
2022/08/01 03:53:14;;;;;;;2.90;2.38;;;20.20;99.90;;;;;;5036810;28;20575;-62
2022/08/01 03:55:44;;;;;;;4.15;2.50;;;20.10;99.90;;;;;;5036991;28;20213;-62
2022/08/01 03:58:12;;;;;;;3.90;2.80;;;20.00;99.90;;;;;;5036362;28;20217;-62
2022/08/01 04:00:40;;;;;;;2.97;2.60;;;19.90;99.90;;;;;;5037047;28;20206;-61
2022/08/01 04:03:10;;;;;;;3.05;2.63;;;19.90;99.90;;;;;;5035976;28;20206;-61
2022/08/01 04:05:37;;;;;;;4.50;2.60;;;19.80;99.90;;;;;;5036737;28;20202;-61
2022/08/01 04:08:04;;;;;;;3.25;2.63;;;19.80;99.90;;;;;;5036480;28;20229;-62
2022/08/01 04:10:31;;;;;;;3.25;2.95;;;19.90;99.90;;;;;;5036255;28;20206;-62
2022/08/01 04:12:59;;;;;;;3.03;2.72;;;19.90;99.90;;;;;;5036713;28;20218;-62
2022/08/01 04:15:26;;;;;;;3.72;2.70;;;20.00;99.90;;;;;;5036462;28;20574;-60
2022/08/01 04:17:53;;;;;;;4.60;3.13;;;20.00;99.90;;;;;;5036939;28;20206;-61
2022/08/01 04:20:21;;;;;;;3.72;2.75;;;20.00;99.90;;;;;;5036289;28;20216;-61
2022/08/01 04:22:47;;;;;;;3.03;2.72;;;20.10;99.90;;;;;;5036227;28;20209;-61
2022/08/01 04:25:20;;;;;;;2.95;2.55;;;20.10;99.90;;;;;;5036133;28;20230;-62
2022/08/01 04:27:49;;;;;;;3.08;2.70;;;20.20;99.90;;;;;;5036274;28;20218;-61
2022/08/01 04:30:19;;;;;;;5.93;2.97;;;20.20;99.90;;;;;;5035795;28;20841;-62
2022/08/01 04:32:49;;;;;;;3.05;2.40;;;20.30;99.90;;;;;;5036197;28;20233;-62
2022/08/01 04:35:19;;;;;;;5.45;3.10;;;20.40;99.90;;;;;;5036060;28;20589;-62
2022/08/01 04:37:48;;;;;;;6.47;2.95;;;20.40;99.90;;;;;;5036067;28;20220;-61
2022/08/01 04:40:16;;;;;;;6.05;3.10;;;20.50;99.90;;;;;;5035506;28;20229;-62
2022/08/01 04:42:43;;;;;;;3.10;2.80;;;20.50;99.90;;;;;;5034849;28;20234;-61
2022/08/01 04:45:12;;;;;;;5.03;2.95;;;20.50;99.90;;;;;;5035506;28;20646;-62
2022/08/01 04:47:41;;;;;;;5.20;3.00;;;20.50;99.90;;;;;;5035049;28;20582;-62
2022/08/01 04:50:09;;;;;;;4.40;3.50;;;20.50;99.90;;;;;;5034896;28;20687;-62
2022/08/01 04:52:37;;;;;;;3.65;3.22;;;20.50;99.90;;;;;;5034867;28;20237;-62
2022/08/01 04:55:05;;;;;;;4.03;2.85;;;20.50;99.90;;;;;;5035167;28;20285;-61
2022/08/01 04:57:33;;;;;;;4.63;2.70;;;20.60;99.90;;;;;;5034644;28;20206;-62
2022/08/01 05:00:02;;;;;;;3.90;2.78;;;20.60;99.90;;;;;;5035112;28;20226;-62
2022/08/01 05:02:29;;;;;;;3.55;2.70;;;20.60;99.90;;;;;;5035087;28;20333;-62
2022/08/01 05:04:57;;;;;;;4.20;2.55;;;20.70;99.90;;;;;;5035149;28;20223;-61
2022/08/01 05:07:24;;;;;;;3.97;2.47;;;20.90;99.90;;;;;;5035292;28;20213;-61
2022/08/01 05:09:51;;;;;;;5.45;2.90;;;21.10;99.90;;;;;;5036087;28;20214;-61
2022/08/01 05:12:18;;;;;;;2.70;2.50;;;21.30;99.90;;;;;;5035338;28;20230;-60
2022/08/01 05:14:45;;;;;;;3.50;2.53;;;21.50;99.90;;;;;;5034707;28;20250;-61
2022/08/01 05:17:12;;;;;;;4.75;2.70;;;21.70;99.90;;;;;;5035253;28;20217;-61
2022/08/01 05:19:40;;;;;;;6.50;2.47;;;22.00;99.90;;;;;;5035391;28;20210;-61
2022/08/01 05:22:10;;;;;;;6.45;2.13;;;22.20;99.90;;;;;;5034929;28;20230;-61
2022/08/01 05:24:38;;;;;;;4.22;2.13;;;22.40;99.90;;;;;;5034975;28;20317;-62
2022/08/01 05:27:07;;;;;;;3.13;2.17;;;22.50;99.90;;;;;;5035409;28;20233;-61
2022/08/01 05:29:34;;;;;;;3.40;2.30;;;22.70;99.90;;;;;;5034631;28;20562;-60
2022/08/01 05:32:01;;;;;;;3.22;2.35;;;22.80;99.90;;;;;;5034681;28;20290;-61
2022/08/01 05:34:29;;;;;;;2.70;1.83;;;22.80;99.90;;;;;;5034862;28;20213;-62
2022/08/01 05:36:56;;;;;;;4.30;2.17;;;22.90;99.90;;;;;;5034582;28;20210;-62
2022/08/01 05:39:24;;;;;;;3.38;2.00;;;23.10;99.90;;;;;;5034130;28;20202;-61
2022/08/01 05:41:50;;;;;;;3.85;2.03;;;23.90;99.90;;;;;;5034213;28;20323;-61
2022/08/01 05:44:17;;;;;;;3.53;2.00;;;24.40;99.90;;;;;;5034085;28;20237;-62
2022/08/01 05:46:44;;;;;;;3.03;2.00;;;24.40;99.90;;;;;;5034526;28;20210;-63
2022/08/01 05:49:11;;;;;;;5.65;2.13;;;24.70;99.90;;;;;;5034050;28;20206;-61
2022/08/01 05:51:37;;;;;;;4.70;1.70;;;26.00;99.90;;;;;;5033801;28;20233;-62
2022/08/01 05:54:04;;;;;;;3.78;2.13;;;28.00;98.20;;;;;;5034437;28;20213;-62
2022/08/01 05:56:33;;;;;;;4.25;1.95;;;29.80;93.50;;;;;;5034091;28;20678;-62
2022/08/01 05:58:59;;;;;;;3.03;1.75;;;30.40;90.60;;;;;;5034512;28;20618;-62
2022/08/01 06:01:26;;;;;;;2.78;2.08;;;30.30;89.90;;;;;;5034343;28;20226;-62
2022/08/01 06:03:54;;;;;;;3.60;1.85;;;30.70;87.70;;;;;;5034264;28;20222;-62
2022/08/01 06:06:20;;;;;;;3.95;1.75;;;32.10;83.00;;;;;;5034223;28;20667;-62
2022/08/01 06:08:47;;;;;;;2.55;1.83;;;34.00;76.40;;;;;;5034474;28;20206;-63
2022/08/01 06:11:14;;;;;;;4.78;1.80;;;35.40;68.30;;;;;;5034623;28;20305;-63
2022/08/01 06:13:42;;;;;;;4.15;2.00;;;35.30;67.50;;;;;;5034685;28;20218;-63
2022/08/01 06:16:09;;;;;;;4.13;1.60;;;35.20;65.70;;;;;;5035070;28;20217;-62
2022/08/01 06:18:36;;;;;;;5.65;2.40;;;35.70;64.80;;;;;;5035905;28;20206;-61
2022/08/01 06:21:02;;;;;;;4.80;1.73;;;36.90;62.00;;;;;;5035367;28;20237;-63
2022/08/01 06:23:29;;;;;;;2.90;1.58;;;38.00;57.80;;;;;;5035242;28;20217;-62
2022/08/01 06:25:57;;;;;;;3.85;1.45;;;38.40;57.20;;;;;;5035800;28;20229;-62
2022/08/01 06:28:24;;;;;;;2.70;1.52;;;38.70;55.80;;;;;;5036042;28;20210;-63
2022/08/01 06:30:53;;;;;;;3.55;1.45;;;39.40;54.40;;;;;;5035660;28;20231;-63
2022/08/01 06:33:19;;;;;;;2.30;1.50;;;39.40;53.40;;;;;;5035247;28;20632;-62
2022/08/01 06:35:46;;;;;;;1.85;1.20;;;38.70;54.20;;;;;;5035283;28;20586;-63
2022/08/01 06:38:13;;;;;;;3.60;1.45;;;38.90;54.40;;;;;;5035428;28;20206;-63
2022/08/01 06:40:40;;;;;;;4.07;1.45;;;39.80;53.00;;;;;;5036260;28;20208;-62
2022/08/01 06:43:06;;;;;;;2.30;1.90;;;40.60;51.30;;;;;;5036179;28;20213;-63
2022/08/01 06:45:33;;;;;;;4.95;1.48;;;40.90;50.40;;;;;;5035181;28;20225;-61
2022/08/01 06:48:01;;;;;;;2.97;1.50;;;41.20;49.50;;;;;;5035081;28;20209;-61
2022/08/01 06:50:28;;;;;;;1.55;1.30;;;41.60;49.10;;;;;;5034466;28;20209;-62
2022/08/01 06:52:55;;;;;;;7.93;1.27;;;42.00;47.90;;;;;;5034514;28;20584;-62
2022/08/01 06:55:22;;;;;;;3.13;1.30;;;42.10;47.90;;;;;;5034799;28;20274;-63
2022/08/01 06:57:50;;;;;;;7.78;1.67;;;42.00;47.10;;;;;;5034753;28;20233;-63
2022/08/01 07:00:22;;;;;;;3.63;1.27;;;40.60;49.00;;;;;;5035308;28;20685;-63
2022/08/01 07:02:48;;;;;;;2.35;1.35;;;40.40;49.80;;;;;;5035173;28;20658;-63
2022/08/01 07:05:17;;;;;;;2.53;0.95;;;40.80;48.30;;;;;;5036380;28;20613;-63
2022/08/01 07:07:44;;;;;;;3.72;1.13;;;41.00;47.90;;;;;;5036531;28;20206;-63
2022/08/01 07:10:11;;;;;;;1.42;1.23;;;40.00;49.40;;;;;;5036226;28;20214;-63
2022/08/01 07:12:40;;;;;;;1.67;1.40;;;39.60;50.00;;;;;;5036242;28;20753;-63
2022/08/01 07:15:08;;;;;;;3.70;1.20;;;39.60;49.70;;;;;;5037062;28;20228;-63
2022/08/01 07:17:38;;;;;;;2.35;1.27;;;39.10;51.00;;;;;;5036818;28;20210;-63
2022/08/01 07:20:06;;;;;;;1.75;0.88;;;39.80;50.40;;;;;;5036810;28;20213;-63
2022/08/01 07:22:34;;;;;;;2.47;1.30;;;40.70;48.90;;;;;;5039965;28;20230;-63
2022/08/01 07:25:01;;;;;;;2.28;0.80;;;42.20;46.90;;;;;;5041711;28;20228;-62
2022/08/01 07:27:28;;;;;;;2.20;2.00;;;43.40;45.10;;;;;;5042243;28;20216;-62
2022/08/01 07:29:55;;;;;;;2.92;1.20;;;44.10;43.80;;;;;;5040522;28;20213;-61
2022/08/01 07:32:22;;;;;;;4.07;1.30;;;44.70;42.60;;;;;;5040666;28;20222;-62
2022/08/01 07:34:49;;;;;;;5.57;1.17;;;44.80;42.50;;;;;;5039894;28;20264;-62
2022/08/01 07:37:16;;;;;;;5.15;1.70;;;44.50;42.30;;;;;;5038344;28;20201;-62
2022/08/01 07:39:44;;;;;;;3.38;1.30;;;41.70;45.60;;;;;;5038825;28;20202;-61
2022/08/01 07:42:11;;;;;;;1.73;1.20;;;40.00;47.80;;;;;;5040153;28;20238;-62
2022/08/01 07:44:38;;;;;;;1.90;1.00;;;38.50;49.90;;;;;;5039970;28;20233;-61
2022/08/01 07:47:06;;;;;;;2.92;1.40;;;38.30;50.20;;;;;;5040315;28;20245;-62
2022/08/01 07:49:33;;;;;;;3.80;1.13;;;38.00;50.80;;;;;;5040104;28;20221;-62
2022/08/01 07:52:00;;;;;;;2.53;1.10;;;38.20;50.50;;;;;;5038417;28;20218;-61
2022/08/01 07:54:27;;;;;;;2.08;0.98;;;38.90;49.40;;;;;;5038934;28;20229;-62
2022/08/01 07:56:56;;;;;;;2.10;1.10;;;39.20;49.10;;;;;;5038229;28;20206;-62
2022/08/01 07:59:23;;;;;;;6.15;1.60;;;39.50;48.80;;;;;;5039832;28;20206;-62
2022/08/01 08:01:51;;;;;;;1.27;1.08;;;40.00;48.10;;;;;;5041024;28;20229;-62
2022/08/01 08:04:18;;;;;;;1.00;0.90;;;39.50;48.80;;;;;;5040352;28;20237;-62
2022/08/01 08:06:47;;;;;;;1.83;1.27;;;39.60;48.80;;;;;;5040317;28;20736;-62
2022/08/01 08:09:14;;;;;;;4.35;1.25;;;40.20;47.60;;;;;;5040433;28;20456;-62
2022/08/01 08:11:44;;;;;;;2.35;0.90;;;40.30;47.40;;;;;;5040250;28;20334;-62
2022/08/01 08:14:12;;;;;;;2.88;1.17;;;40.20;47.20;;;;;;5039721;28;20301;-62
2022/08/01 08:16:39;;;;;;;3.67;1.17;;;40.00;47.60;;;;;;5040300;28;20209;-62
2022/08/01 08:19:06;;;;;;;1.45;1.05;;;40.90;46.40;;;;;;5041036;28;20237;-62
2022/08/01 08:21:33;;;;;;;4.18;1.20;;;41.70;45.00;;;;;;5038528;28;20225;-62
2022/08/01 08:26:47;;;;;;;3.75;1.23;;;42.30;44.10;;;;;;5035883;28;20732;-62
2022/08/01 08:29:16;;;;;;;1.52;0.95;;;42.00;44.70;;;;;;5042097;28;20209;-62
2022/08/01 08:31:43;;;;;;;1.33;1.02;;;42.40;44.20;;;;;;5039087;28;20221;-61
2022/08/01 08:34:10;;;;;;;4.22;2.67;;;41.70;44.80;;;;;;5038991;28;20202;-62
2022/08/01 08:36:36;;;;;;;3.75;1.17;;;40.80;46.20;;;;;;5038410;28;20232;-62
2022/08/01 08:39:04;;;;;;;4.15;1.40;;;40.50;46.40;;;;;;5038535;28;20210;-62
2022/08/01 08:41:31;;;;;;;2.17;1.15;;;39.10;48.20;;;;;;5038370;28;20257;-61
2022/08/01 08:43:58;;;;;;;2.40;1.35;;;37.50;50.40;;;;;;5038648;28;20214;-62
2022/08/01 08:46:28;;;;;;;12.23;1.77;;;35.80;53.60;;;;;;5039579;28;20253;-61
2022/08/01 08:48:57;;;;;;;4.78;1.30;;;34.80;55.10;;;;;;5037145;28;20209;-61
2022/08/01 08:51:27;;;;;;;11.40;1.67;;;34.20;56.40;;;;;;5037108;28;20272;-61
2022/08/01 08:53:57;;;;;;;4.43;1.42;;;33.50;57.70;;;;;;5037648;28;20186;-61
2022/08/01 08:56:25;;;;;;;2.40;1.77;;;32.80;59.10;;;;;;5037902;28;20206;-61
2022/08/01 08:58:53;;;;;;;3.28;1.30;;;31.90;61.10;;;;;;5036812;28;20290;-61
2022/08/01 09:01:19;;;;;;;3.15;1.17;;;31.60;62.60;;;;;;5036187;28;20226;-61
2022/08/01 09:03:48;;;;;;;2.35;1.33;;;31.30;62.30;;;;;;5036474;28;20203;-62
2022/08/01 09:06:15;;;;;;;5.50;1.38;;;30.90;63.70;;;;;;5035484;28;20222;-61
2022/08/01 09:08:42;;;;;;;1.55;1.20;;;30.60;64.40;;;;;;5035819;28;20210;-65
2022/08/01 09:11:09;;;;;;;1.08;1.00;;;30.60;64.90;;;;;;5034295;28;20234;-59
2022/08/01 09:13:36;;;;;;;3.30;1.48;;;30.50;64.40;;;;;;5033415;28;20670;-58
2022/08/01 09:16:03;;;;;;;1.75;1.40;;;30.50;64.80;;;;;;5033524;28;20206;-59
2022/08/01 09:18:34;;;;;;;2.00;1.70;;;30.40;64.80;;;;;;5033309;28;20217;-59
2022/08/01 09:21:16;;;;;;;3.05;1.83;;;30.30;65.60;;;;;;5033314;28;20226;-59
2022/08/01 09:23:45;;;;;;;4.22;1.60;;;30.10;65.90;;;;;;5033575;28;20216;-60
2022/08/01 09:26:13;;;;;;;2.55;1.90;;;30.10;66.20;;;;;;5033506;28;20234;-60
2022/08/01 09:28:40;;;;;;;3.42;2.00;;;30.00;66.80;;;;;;5033294;28;20210;-58
2022/08/01 09:31:10;;;;;;;4.38;2.08;;;30.10;67.10;;;;;;5033329;28;20222;-58
2022/08/01 09:33:51;;;;;;;3.97;2.10;;;30.30;66.70;;;;;;5032871;28;20210;-58
2022/08/01 09:36:20;;;;;;;4.88;1.80;;;30.40;66.50;;;;;;5033221;28;20643;-58
2022/08/01 09:38:47;;;;;;;3.58;2.30;;;30.40;67.20;;;;;;5033148;28;20210;-58
2022/08/01 09:41:14;;;;;;;3.53;2.40;;;30.50;66.40;;;;;;5033634;28;20242;-58
2022/08/01 09:43:40;;;;;;;3.78;2.85;;;30.60;66.30;;;;;;5032810;28;20202;-58
2022/08/01 09:46:12;;;;;;;3.30;2.60;;;30.80;66.20;;;;;;5032780;28;20229;-58
2022/08/01 09:48:40;;;;;;;3.55;2.40;;;30.80;65.40;;;;;;5033329;28;20264;-58
2022/08/01 09:51:07;;;;;;;4.10;2.65;;;30.80;65.10;;;;;;5033022;28;20292;-58
2022/08/01 09:53:49;;;;;;;3.25;2.28;;;30.80;65.40;;;;;;5032582;28;20209;-57
2022/08/01 09:56:16;;;;;;;6.43;2.78;;;30.90;65.20;;;;;;5032741;28;20198;-58
2022/08/01 09:58:54;;;;;;;3.60;2.30;;;30.80;65.50;;;;;;5032853;28;20209;-58
2022/08/01 10:01:22;;;;;;;4.65;2.67;;;30.60;66.00;;;;;;5032750;28;20515;-58
2022/08/01 10:04:05;;;;;;;4.18;2.80;;;30.60;66.20;;;;;;5032421;28;20206;-58
2022/08/01 10:06:32;;;;;;;3.67;2.75;;;30.70;66.30;;;;;;5032612;28;20253;-58
2022/08/01 10:09:00;;;;;;;4.72;2.50;;;30.90;65.90;;;;;;5032564;28;20576;-58
2022/08/01 10:11:29;;;;;;;3.55;2.60;;;31.20;65.70;;;;;;5029849;28;20761;-60
2022/08/01 10:13:57;;;;;;;4.13;2.45;;;31.40;65.40;;;;;;5031089;28;20209;-61
2022/08/01 10:16:25;;;;;;;2.85;2.60;;;31.50;64.20;;;;;;5031847;28;20214;-59
2022/08/01 10:18:54;;;;;;;5.85;2.85;;;31.70;63.90;;;;;;5032266;28;20244;-58
2022/08/01 10:21:23;;;;;;;4.63;2.08;;;32.00;63.80;;;;;;5031340;28;20226;-59
2022/08/01 10:23:50;;;;;;;6.57;2.40;;;32.30;62.20;;;;;;5032090;28;20205;-58
2022/08/01 10:26:19;;;;;;;3.45;2.67;;;32.30;62.10;;;;;;5030924;28;20231;-59
2022/08/01 10:28:48;;;;;;;4.00;1.70;;;32.20;62.30;;;;;;5031557;28;20210;-59
2022/08/01 10:31:17;;;;;;;4.72;3.33;;;32.20;61.80;;;;;;5030958;28;20417;-59
2022/08/01 10:33:44;;;;;;;4.88;2.30;;;32.20;61.00;;;;;;5030642;28;20213;-59
2022/08/01 10:36:11;;;;;;;2.53;1.70;;;32.40;60.90;;;;;;5030978;28;20198;-58
2022/08/01 10:38:39;;;;;;;3.15;2.10;;;32.60;60.60;;;;;;5031067;28;20210;-58
2022/08/01 10:41:06;;;;;;;2.25;2.03;;;32.70;60.50;;;;;;5031077;28;20637;-58
2022/08/01 10:43:35;;;;;;;2.22;2.03;;;32.80;59.90;;;;;;5030909;28;20214;-59
2022/08/01 10:46:02;;;;;;;2.78;1.90;;;32.80;60.00;;;;;;5031325;28;20226;-59
2022/08/01 10:48:39;;;;;;;4.10;2.17;;;32.60;60.70;;;;;;5031154;28;20221;-58
2022/08/01 10:51:07;;;;;;;2.53;2.10;;;32.10;62.00;;;;;;5031188;28;20225;-58
2022/08/01 10:53:34;;;;;;;5.05;1.92;;;31.40;63.20;;;;;;5031009;28;20214;-59
2022/08/01 10:56:02;;;;;;;1.95;1.80;;;31.00;63.60;;;;;;5033414;28;20202;-58
2022/08/01 10:58:32;;;;;;;2.13;1.90;;;31.00;64.70;;;;;;5034773;28;20685;-58
2022/08/01 11:01:26;;;;;;;5.15;2.03;;;31.00;64.40;;;;;;5034327;28;20788;-59
2022/08/01 11:04:14;;;;;;;5.72;2.03;;;30.90;64.80;;;;;;5034851;28;20301;-58
2022/08/01 11:06:54;;;;;;;2.75;2.00;;;31.00;64.70;;;;;;5031622;28;20247;-59
2022/08/01 11:09:38;;;;;;;2.92;1.80;;;31.10;64.50;;;;;;5034803;28;20263;-58
2022/08/01 11:12:08;;;;;;;2.63;1.58;;;30.90;64.90;;;;;;5035273;28;20222;-59
2022/08/01 11:14:50;;;;;;;3.03;1.80;;;30.80;65.10;;;;;;5034600;28;20225;-59
2022/08/01 11:17:35;;;;;;;2.17;1.83;;;30.90;64.20;;;;;;5034754;28;20207;-60
2022/08/01 11:20:06;;;;;;;5.22;1.70;;;31.10;63.40;;;;;;5034539;28;20666;-60
2022/08/01 11:22:54;;;;;;;5.28;2.17;;;31.30;63.90;;;;;;5034333;28;20241;-60
2022/08/01 11:25:21;;;;;;;2.65;1.73;;;31.50;63.60;;;;;;5033996;28;20206;-61
2022/08/01 11:27:48;;;;;;;3.55;2.05;;;31.60;63.30;;;;;;5035338;28;20217;-61
2022/08/01 11:30:25;;;;;;;2.83;1.80;;;31.60;63.70;;;;;;5035089;28;20841;-61
2022/08/01 11:32:55;;;;;;;3.83;1.88;;;31.40;64.20;;;;;;5035029;28;20245;-60
2022/08/01 11:35:24;;;;;;;1.80;1.70;;;31.20;64.70;;;;;;5034390;28;20210;-60
2022/08/01 11:37:52;;;;;;;2.15;1.67;;;31.10;64.80;;;;;;5034560;28;20211;-60
2022/08/01 11:40:22;;;;;;;3.80;1.83;;;31.00;63.90;;;;;;5034499;28;20632;-60
2022/08/01 11:42:49;;;;;;;2.50;1.70;;;31.10;64.30;;;;;;5035572;28;20206;-62
2022/08/01 11:45:16;;;;;;;3.55;1.50;;;31.30;63.80;;;;;;5035032;28;20210;-62
2022/08/01 11:47:48;;;;;;;2.42;1.60;;;31.50;64.40;;;;;;5034697;28;20659;-60
2022/08/01 11:50:36;;;;;;;2.28;1.70;;;31.70;63.10;;;;;;5034419;28;20209;-60
2022/08/01 11:53:05;;;;;;;4.78;1.50;;;31.70;61.70;;;;;;5035463;28;20256;-59
2022/08/01 11:55:34;;;;;;;5.55;1.75;;;31.50;61.50;;;;;;5034812;28;20203;-59
2022/08/01 11:58:02;;;;;;;3.78;1.80;;;31.30;61.40;;;;;;5035050;28;20206;-58
2022/08/01 12:00:30;;;;;;;2.58;1.85;;;31.10;61.20;;;;;;5034764;28;20206;-60
2022/08/01 12:02:59;;;;;;;3.90;1.33;;;31.30;61.70;;;;;;5034815;28;20206;-59
2022/08/01 12:05:27;;;;;;;1.83;1.38;;;31.50;60.90;;;;;;5034114;28;20206;-59
2022/08/01 12:07:56;;;;;;;2.55;1.50;;;31.80;59.80;;;;;;5034905;28;20206;-60
2022/08/01 12:10:24;;;;;;;2.55;1.48;;;31.90;60.00;;;;;;5034656;28;20210;-59
2022/08/01 12:12:53;;;;;;;2.65;1.30;;;31.90;59.70;;;;;;5034707;28;20202;-60
2022/08/01 12:15:21;;;;;;;4.90;1.42;;;31.80;60.50;;;;;;5034708;28;20202;-59
2022/08/01 12:17:50;;;;;;;4.18;1.77;;;32.00;60.60;;;;;;5034515;28;20552;-59
2022/08/01 12:20:20;;;;;;;1.90;1.42;;;31.90;61.10;;;;;;5034427;28;20210;-59
2022/08/01 12:22:47;;;;;;;5.53;1.35;;;31.90;60.90;;;;;;5034469;28;20678;-59
2022/08/01 12:25:18;;;;;;;4.22;1.40;;;32.00;61.30;;;;;;5034467;28;20207;-59
2022/08/01 12:27:46;;;;;;;3.05;1.40;;;31.90;61.30;;;;;;5034310;28;20234;-59
2022/08/01 12:30:14;;;;;;;3.65;1.65;;;31.80;61.40;;;;;;5034415;28;20210;-59
2022/08/01 12:32:43;;;;;;;6.00;1.40;;;31.70;61.70;;;;;;5034002;28;20711;-59
2022/08/01 12:35:11;;;;;;;4.93;1.58;;;31.30;62.40;;;;;;5034039;28;20210;-59
2022/08/01 12:37:39;;;;;;;1.70;1.38;;;31.10;62.80;;;;;;5034263;28;20580;-59
2022/08/01 12:40:18;;;;;;;3.80;1.80;;;31.10;64.00;;;;;;5034423;28;20678;-59
2022/08/01 12:42:46;;;;;;;3.03;1.63;;;31.20;63.10;;;;;;5033925;28;20844;-59
2022/08/01 12:45:16;;;;;;;3.05;1.58;;;31.30;63.10;;;;;;5033730;28;20206;-59
2022/08/01 12:47:43;;;;;;;1.30;1.20;;;31.60;62.20;;;;;;5034113;28;20249;-58
2022/08/01 12:50:13;;;;;;;1.60;1.40;;;31.80;61.80;;;;;;5034063;28;20697;-59
2022/08/01 12:52:40;;;;;;;4.25;1.25;;;32.10;61.20;;;;;;5033571;28;20280;-59
2022/08/01 12:55:10;;;;;;;2.63;1.50;;;32.10;61.20;;;;;;5033642;28;20595;-59
2022/08/01 12:57:40;;;;;;;8.35;2.28;;;31.90;61.40;;;;;;5033666;28;20208;-59
2022/08/01 13:00:13;;;;;;;5.60;1.45;;;31.80;61.80;;;;;;5033805;28;20214;-59
2022/08/01 13:02:41;;;;;;;1.80;1.50;;;31.70;61.70;;;;;;5033455;28;20226;-59